sensor_id;sensor_type;location;lat;lon;timestamp;temperature;humidity
82788;DHT22;72529;51.786;4.662;2023-09-30T00:00:42;15.44;80.30
82788;DHT22;72529;51.786;4.662;2023-09-30T00:03:08;15.44;80.62
82788;DHT22;72529;51.786;4.662;2023-09-30T00:05:33;15.47;80.71
82788;DHT22;72529;51.786;4.662;2023-09-30T00:07:58;15.51;80.66
82788;DHT22;72529;51.786;4.662;2023-09-30T00:10:27;15.59;80.57
82788;DHT22;72529;51.786;4.662;2023-09-30T00:12:52;15.66;80.47
82788;DHT22;72529;51.786;4.662;2023-09-30T00:15:17;15.66;80.27
82788;DHT22;72529;51.786;4.662;2023-09-30T00:17:43;15.76;80.03
82788;DHT22;72529;51.786;4.662;2023-09-30T00:20:09;15.71;79.97
82788;DHT22;72529;51.786;4.662;2023-09-30T00:22:35;15.64;80.47
82788;DHT22;72529;51.786;4.662;2023-09-30T00:25:03;15.50;81.47
82788;DHT22;72529;51.786;4.662;2023-09-30T00:27:29;15.49;81.33
82788;DHT22;72529;51.786;4.662;2023-09-30T00:29:55;15.60;81.18
82788;DHT22;72529;51.786;4.662;2023-09-30T00:32:21;15.67;81.07
82788;DHT22;72529;51.786;4.662;2023-09-30T00:34:46;15.73;80.80
82788;DHT22;72529;51.786;4.662;2023-09-30T00:37:12;15.76;80.46
82788;DHT22;72529;51.786;4.662;2023-09-30T00:39:37;15.69;80.47
82788;DHT22;72529;51.786;4.662;2023-09-30T00:42:03;15.71;80.36
82788;DHT22;72529;51.786;4.662;2023-09-30T00:44:30;15.71;80.12
82788;DHT22;72529;51.786;4.662;2023-09-30T00:46:56;15.70;80.20
82788;DHT22;72529;51.786;4.662;2023-09-30T00:49:25;15.59;80.34
82788;DHT22;72529;51.786;4.662;2023-09-30T00:51:52;15.50;80.73
82788;DHT22;72529;51.786;4.662;2023-09-30T00:54:18;15.49;80.89
82788;DHT22;72529;51.786;4.662;2023-09-30T00:56:46;15.50;80.67
82788;DHT22;72529;51.786;4.662;2023-09-30T00:59:13;15.53;80.57
82788;DHT22;72529;51.786;4.662;2023-09-30T01:01:43;15.54;80.42
82788;DHT22;72529;51.786;4.662;2023-09-30T01:04:09;15.53;80.62
82788;DHT22;72529;51.786;4.662;2023-09-30T01:06:36;15.59;80.29
82788;DHT22;72529;51.786;4.662;2023-09-30T01:09:01;15.57;79.94
82788;DHT22;72529;51.786;4.662;2023-09-30T01:11:28;15.54;79.69
82788;DHT22;72529;51.786;4.662;2023-09-30T01:13:53;15.53;79.47
82788;DHT22;72529;51.786;4.662;2023-09-30T01:16:22;15.49;79.55
82788;DHT22;72529;51.786;4.662;2023-09-30T01:18:49;15.47;79.62
82788;DHT22;72529;51.786;4.662;2023-09-30T01:21:14;15.47;79.60
82788;DHT22;72529;51.786;4.662;2023-09-30T01:23:40;15.40;79.52
82788;DHT22;72529;51.786;4.662;2023-09-30T01:26:08;15.44;79.37
82788;DHT22;72529;51.786;4.662;2023-09-30T01:28:34;15.39;79.70
82788;DHT22;72529;51.786;4.662;2023-09-30T01:31:00;15.38;79.82
82788;DHT22;72529;51.786;4.662;2023-09-30T01:33:26;15.35;79.97
82788;DHT22;72529;51.786;4.662;2023-09-30T01:35:52;15.39;79.78
82788;DHT22;72529;51.786;4.662;2023-09-30T01:38:17;15.39;79.68
82788;DHT22;72529;51.786;4.662;2023-09-30T01:40:43;15.39;79.80
82788;DHT22;72529;51.786;4.662;2023-09-30T01:43:09;15.39;79.94
82788;DHT22;72529;51.786;4.662;2023-09-30T01:45:34;15.38;80.16
82788;DHT22;72529;51.786;4.662;2023-09-30T01:48:01;15.42;80.22
82788;DHT22;72529;51.786;4.662;2023-09-30T01:50:27;15.39;80.12
82788;DHT22;72529;51.786;4.662;2023-09-30T01:52:53;15.42;80.28
82788;DHT22;72529;51.786;4.662;2023-09-30T01:55:18;15.39;80.51
82788;DHT22;72529;51.786;4.662;2023-09-30T01:57:44;15.42;80.74
82788;DHT22;72529;51.786;4.662;2023-09-30T02:00:09;15.44;80.68
82788;DHT22;72529;51.786;4.662;2023-09-30T02:02:35;15.50;80.14
82788;DHT22;72529;51.786;4.662;2023-09-30T02:05:02;15.50;80.02
82788;DHT22;72529;51.786;4.662;2023-09-30T02:07:28;15.47;80.33
82788;DHT22;72529;51.786;4.662;2023-09-30T02:09:54;15.49;79.99
82788;DHT22;72529;51.786;4.662;2023-09-30T02:12:20;15.50;80.07
82788;DHT22;72529;51.786;4.662;2023-09-30T02:14:45;15.49;79.66
82788;DHT22;72529;51.786;4.662;2023-09-30T02:17:14;15.44;79.58
82788;DHT22;72529;51.786;4.662;2023-09-30T02:19:40;15.42;79.50
82788;DHT22;72529;51.786;4.662;2023-09-30T02:22:06;15.36;79.20
82788;DHT22;72529;51.786;4.662;2023-09-30T02:24:32;15.30;79.31
82788;DHT22;72529;51.786;4.662;2023-09-30T02:26:57;15.25;79.80
82788;DHT22;72529;51.786;4.662;2023-09-30T02:29:23;15.22;79.34
82788;DHT22;72529;51.786;4.662;2023-09-30T02:31:49;15.18;79.33
82788;DHT22;72529;51.786;4.662;2023-09-30T02:34:14;15.09;79.51
82788;DHT22;72529;51.786;4.662;2023-09-30T02:36:40;15.12;79.60
82788;DHT22;72529;51.786;4.662;2023-09-30T02:39:05;15.06;79.67
82788;DHT22;72529;51.786;4.662;2023-09-30T02:41:32;15.05;79.37
82788;DHT22;72529;51.786;4.662;2023-09-30T02:43:57;15.02;79.42
82788;DHT22;72529;51.786;4.662;2023-09-30T02:46:22;15.02;79.42
82788;DHT22;72529;51.786;4.662;2023-09-30T02:48:48;14.99;79.59
82788;DHT22;72529;51.786;4.662;2023-09-30T02:51:13;14.95;79.57
82788;DHT22;72529;51.786;4.662;2023-09-30T02:53:39;14.91;79.70
82788;DHT22;72529;51.786;4.662;2023-09-30T02:56:05;14.89;80.01
82788;DHT22;72529;51.786;4.662;2023-09-30T02:58:30;14.91;80.44
82788;DHT22;72529;51.786;4.662;2023-09-30T03:00:56;14.95;80.44
82788;DHT22;72529;51.786;4.662;2023-09-30T03:03:21;14.96;80.31
82788;DHT22;72529;51.786;4.662;2023-09-30T03:05:48;14.95;80.40
82788;DHT22;72529;51.786;4.662;2023-09-30T03:08:15;15.00;80.14
82788;DHT22;72529;51.786;4.662;2023-09-30T03:10:41;14.99;80.12
82788;DHT22;72529;51.786;4.662;2023-09-30T03:13:07;15.00;80.06
82788;DHT22;72529;51.786;4.662;2023-09-30T03:15:37;15.00;80.37
82788;DHT22;72529;51.786;4.662;2023-09-30T03:18:04;15.02;80.44
82788;DHT22;72529;51.786;4.662;2023-09-30T03:20:30;15.03;80.66
82788;DHT22;72529;51.786;4.662;2023-09-30T03:22:56;15.03;80.60
82788;DHT22;72529;51.786;4.662;2023-09-30T03:25:22;15.03;81.44
82788;DHT22;72529;51.786;4.662;2023-09-30T03:27:48;15.10;81.15
82788;DHT22;72529;51.786;4.662;2023-09-30T03:30:15;15.10;80.73
82788;DHT22;72529;51.786;4.662;2023-09-30T03:32:41;15.12;81.13
82788;DHT22;72529;51.786;4.662;2023-09-30T03:35:11;15.16;81.24
82788;DHT22;72529;51.786;4.662;2023-09-30T03:37:43;15.19;80.82
82788;DHT22;72529;51.786;4.662;2023-09-30T03:40:09;15.16;80.77
82788;DHT22;72529;51.786;4.662;2023-09-30T03:42:45;15.19;80.72
82788;DHT22;72529;51.786;4.662;2023-09-30T03:45:11;15.22;80.95
82788;DHT22;72529;51.786;4.662;2023-09-30T03:47:40;15.22;80.67
82788;DHT22;72529;51.786;4.662;2023-09-30T03:50:07;15.19;80.67
82788;DHT22;72529;51.786;4.662;2023-09-30T03:52:40;15.19;80.53
82788;DHT22;72529;51.786;4.662;2023-09-30T03:55:10;15.18;80.34
82788;DHT22;72529;51.786;4.662;2023-09-30T03:57:37;15.15;80.77
82788;DHT22;72529;51.786;4.662;2023-09-30T04:00:04;15.16;81.31
82788;DHT22;72529;51.786;4.662;2023-09-30T04:02:34;15.19;80.69
82788;DHT22;72529;51.786;4.662;2023-09-30T04:05:00;15.19;80.63
82788;DHT22;72529;51.786;4.662;2023-09-30T04:07:29;15.19;80.63
82788;DHT22;72529;51.786;4.662;2023-09-30T04:09:55;15.16;80.19
82788;DHT22;72529;51.786;4.662;2023-09-30T04:12:21;15.13;80.20
82788;DHT22;72529;51.786;4.662;2023-09-30T04:14:49;15.05;80.24
82788;DHT22;72529;51.786;4.662;2023-09-30T04:17:14;15.02;80.57
82788;DHT22;72529;51.786;4.662;2023-09-30T04:19:40;15.00;80.36
82788;DHT22;72529;51.786;4.662;2023-09-30T04:22:05;14.98;80.38
82788;DHT22;72529;51.786;4.662;2023-09-30T04:24:31;14.98;80.12
82788;DHT22;72529;51.786;4.662;2023-09-30T04:26:56;14.95;80.19
82788;DHT22;72529;51.786;4.662;2023-09-30T04:29:27;14.93;80.13
82788;DHT22;72529;51.786;4.662;2023-09-30T04:31:55;14.89;80.31
82788;DHT22;72529;51.786;4.662;2023-09-30T04:34:20;14.89;80.36
82788;DHT22;72529;51.786;4.662;2023-09-30T04:36:46;14.85;80.27
82788;DHT22;72529;51.786;4.662;2023-09-30T04:39:13;14.84;79.99
82788;DHT22;72529;51.786;4.662;2023-09-30T04:41:40;14.82;80.04
82788;DHT22;72529;51.786;4.662;2023-09-30T04:44:06;14.81;79.88
82788;DHT22;72529;51.786;4.662;2023-09-30T04:46:32;14.79;79.94
82788;DHT22;72529;51.786;4.662;2023-09-30T04:48:57;14.77;79.71
82788;DHT22;72529;51.786;4.662;2023-09-30T04:51:23;14.72;79.61
82788;DHT22;72529;51.786;4.662;2023-09-30T04:53:51;14.71;79.62
82788;DHT22;72529;51.786;4.662;2023-09-30T04:56:16;14.63;79.84
82788;DHT22;72529;51.786;4.662;2023-09-30T04:58:41;14.61;79.68
82788;DHT22;72529;51.786;4.662;2023-09-30T05:01:07;14.60;79.91
82788;DHT22;72529;51.786;4.662;2023-09-30T05:03:34;14.57;79.58
82788;DHT22;72529;51.786;4.662;2023-09-30T05:06:00;14.55;79.52
82788;DHT22;72529;51.786;4.662;2023-09-30T05:08:26;14.54;79.35
82788;DHT22;72529;51.786;4.662;2023-09-30T05:10:51;14.49;79.64
82788;DHT22;72529;51.786;4.662;2023-09-30T05:13:20;14.42;79.81
82788;DHT22;72529;51.786;4.662;2023-09-30T05:15:46;14.40;79.95
82788;DHT22;72529;51.786;4.662;2023-09-30T05:18:11;14.38;79.72
82788;DHT22;72529;51.786;4.662;2023-09-30T05:20:37;14.35;79.52
82788;DHT22;72529;51.786;4.662;2023-09-30T05:23:04;14.37;79.33
82788;DHT22;72529;51.786;4.662;2023-09-30T05:25:32;14.33;79.69
82788;DHT22;72529;51.786;4.662;2023-09-30T05:27:57;14.30;79.59
82788;DHT22;72529;51.786;4.662;2023-09-30T05:30:23;14.27;79.56
82788;DHT22;72529;51.786;4.662;2023-09-30T05:32:48;14.28;79.59
82788;DHT22;72529;51.786;4.662;2023-09-30T05:35:14;14.30;79.44
82788;DHT22;72529;51.786;4.662;2023-09-30T05:37:43;14.24;79.86
82788;DHT22;72529;51.786;4.662;2023-09-30T05:40:11;14.21;80.13
82788;DHT22;72529;51.786;4.662;2023-09-30T05:42:48;14.21;79.90
82788;DHT22;72529;51.786;4.662;2023-09-30T05:45:15;14.23;79.91
82788;DHT22;72529;51.786;4.662;2023-09-30T05:47:41;14.20;79.74
82788;DHT22;72529;51.786;4.662;2023-09-30T05:50:08;14.18;79.84
82788;DHT22;72529;51.786;4.662;2023-09-30T05:52:35;14.20;79.69
82788;DHT22;72529;51.786;4.662;2023-09-30T05:55:02;14.18;79.70
82788;DHT22;72529;51.786;4.662;2023-09-30T05:57:28;14.18;80.15
82788;DHT22;72529;51.786;4.662;2023-09-30T05:59:54;14.20;79.96
82788;DHT22;72529;51.786;4.662;2023-09-30T06:02:19;14.20;79.81
82788;DHT22;72529;51.786;4.662;2023-09-30T06:04:45;14.17;80.01
82788;DHT22;72529;51.786;4.662;2023-09-30T06:07:11;14.18;81.14
82788;DHT22;72529;51.786;4.662;2023-09-30T06:09:37;14.21;80.58
82788;DHT22;72529;51.786;4.662;2023-09-30T06:12:03;14.25;80.65
82788;DHT22;72529;51.786;4.662;2023-09-30T06:14:32;14.27;81.12
82788;DHT22;72529;51.786;4.662;2023-09-30T06:16:57;14.33;82.05
82788;DHT22;72529;51.786;4.662;2023-09-30T06:19:23;14.41;81.99
82788;DHT22;72529;51.786;4.662;2023-09-30T06:21:51;14.48;81.68
82788;DHT22;72529;51.786;4.662;2023-09-30T06:24:17;14.54;81.98
82788;DHT22;72529;51.786;4.662;2023-09-30T06:26:45;14.60;81.97
82788;DHT22;72529;51.786;4.662;2023-09-30T06:29:10;14.63;81.75
82788;DHT22;72529;51.786;4.662;2023-09-30T06:31:37;14.69;81.49
82788;DHT22;72529;51.786;4.662;2023-09-30T06:34:03;14.71;81.41
82788;DHT22;72529;51.786;4.662;2023-09-30T06:36:29;14.71;81.92
82788;DHT22;72529;51.786;4.662;2023-09-30T06:38:55;14.78;81.64
82788;DHT22;72529;51.786;4.662;2023-09-30T06:41:20;14.82;81.79
82788;DHT22;72529;51.786;4.662;2023-09-30T06:43:46;14.92;81.85
82788;DHT22;72529;51.786;4.662;2023-09-30T06:46:12;14.91;82.15
82788;DHT22;72529;51.786;4.662;2023-09-30T06:48:39;15.05;82.03
82788;DHT22;72529;51.786;4.662;2023-09-30T06:51:12;15.03;82.05
82788;DHT22;72529;51.786;4.662;2023-09-30T06:53:38;15.08;82.22
82788;DHT22;72529;51.786;4.662;2023-09-30T06:56:06;15.03;82.57
82788;DHT22;72529;51.786;4.662;2023-09-30T06:58:32;15.05;82.72
82788;DHT22;72529;51.786;4.662;2023-09-30T07:00:57;15.03;82.88
82788;DHT22;72529;51.786;4.662;2023-09-30T07:03:23;14.99;83.18
82788;DHT22;72529;51.786;4.662;2023-09-30T07:05:48;15.00;83.35
82788;DHT22;72529;51.786;4.662;2023-09-30T07:08:17;15.18;83.10
82788;DHT22;72529;51.786;4.662;2023-09-30T07:10:46;15.30;82.73
82788;DHT22;72529;51.786;4.662;2023-09-30T07:13:12;15.39;82.51
82788;DHT22;72529;51.786;4.662;2023-09-30T07:15:37;15.49;82.13
82788;DHT22;72529;51.786;4.662;2023-09-30T07:18:03;15.50;82.34
82788;DHT22;72529;51.786;4.662;2023-09-30T07:20:29;15.54;82.15
82788;DHT22;72529;51.786;4.662;2023-09-30T07:22:59;15.54;82.32
82788;DHT22;72529;51.786;4.662;2023-09-30T07:25:24;15.57;82.18
82788;DHT22;72529;51.786;4.662;2023-09-30T07:27:50;15.60;82.26
82788;DHT22;72529;51.786;4.662;2023-09-30T07:30:16;15.70;82.02
82788;DHT22;72529;51.786;4.662;2023-09-30T07:32:42;15.76;81.94
82788;DHT22;72529;51.786;4.662;2023-09-30T07:35:08;15.77;82.09
82788;DHT22;72529;51.786;4.662;2023-09-30T07:37:33;15.86;81.88
82788;DHT22;72529;51.786;4.662;2023-09-30T07:39:59;15.90;81.82
82788;DHT22;72529;51.786;4.662;2023-09-30T07:42:24;15.96;81.85
82788;DHT22;72529;51.786;4.662;2023-09-30T07:44:50;16.04;81.68
82788;DHT22;72529;51.786;4.662;2023-09-30T07:47:16;16.01;82.22
82788;DHT22;72529;51.786;4.662;2023-09-30T07:49:42;16.10;81.98
82788;DHT22;72529;51.786;4.662;2023-09-30T07:52:08;16.24;81.61
82788;DHT22;72529;51.786;4.662;2023-09-30T07:54:34;16.20;81.93
82788;DHT22;72529;51.786;4.662;2023-09-30T07:56:59;16.31;81.53
82788;DHT22;72529;51.786;4.662;2023-09-30T07:59:25;16.35;81.90
82788;DHT22;72529;51.786;4.662;2023-09-30T08:01:51;16.44;81.43
82788;DHT22;72529;51.786;4.662;2023-09-30T08:04:18;16.51;80.88
82788;DHT22;72529;51.786;4.662;2023-09-30T08:06:44;16.54;81.09
82788;DHT22;72529;51.786;4.662;2023-09-30T08:09:13;16.54;80.79
82788;DHT22;72529;51.786;4.662;2023-09-30T08:11:38;16.52;81.15
82788;DHT22;72529;51.786;4.662;2023-09-30T08:14:04;16.52;80.79
82788;DHT22;72529;51.786;4.662;2023-09-30T08:16:37;16.44;81.17
82788;DHT22;72529;51.786;4.662;2023-09-30T08:19:06;16.31;81.91
82788;DHT22;72529;51.786;4.662;2023-09-30T08:21:32;16.28;81.70
82788;DHT22;72529;51.786;4.662;2023-09-30T08:23:58;16.24;81.82
82788;DHT22;72529;51.786;4.662;2023-09-30T08:26:26;16.34;81.55
82788;DHT22;72529;51.786;4.662;2023-09-30T08:28:52;16.41;80.86
82788;DHT22;72529;51.786;4.662;2023-09-30T08:31:17;16.45;81.20
82788;DHT22;72529;51.786;4.662;2023-09-30T08:33:43;16.51;81.20
82788;DHT22;72529;51.786;4.662;2023-09-30T08:36:11;16.51;81.31
82788;DHT22;72529;51.786;4.662;2023-09-30T08:38:41;16.62;80.83
82788;DHT22;72529;51.786;4.662;2023-09-30T08:41:07;16.62;80.99
82788;DHT22;72529;51.786;4.662;2023-09-30T08:43:40;16.65;81.18
82788;DHT22;72529;51.786;4.662;2023-09-30T08:46:07;16.68;81.41
82788;DHT22;72529;51.786;4.662;2023-09-30T08:48:33;16.78;80.58
82788;DHT22;72529;51.786;4.662;2023-09-30T08:51:00;16.93;80.34
82788;DHT22;72529;51.786;4.662;2023-09-30T08:53:26;17.00;80.61
82788;DHT22;72529;51.786;4.662;2023-09-30T08:55:54;17.12;80.04
82788;DHT22;72529;51.786;4.662;2023-09-30T08:58:26;17.17;80.15
82788;DHT22;72529;51.786;4.662;2023-09-30T09:00:52;17.24;80.19
82788;DHT22;72529;51.786;4.662;2023-09-30T09:03:20;17.24;79.85
82788;DHT22;72529;51.786;4.662;2023-09-30T09:05:56;17.27;80.25
82788;DHT22;72529;51.786;4.662;2023-09-30T09:08:24;17.37;80.27
82788;DHT22;72529;51.786;4.662;2023-09-30T09:10:58;17.46;80.66
82788;DHT22;72529;51.786;4.662;2023-09-30T09:13:27;17.59;79.55
82788;DHT22;72529;51.786;4.662;2023-09-30T09:16:06;17.71;79.54
82788;DHT22;72529;51.786;4.662;2023-09-30T09:18:33;17.77;78.68
82788;DHT22;72529;51.786;4.662;2023-09-30T09:21:28;17.90;79.13
82788;DHT22;72529;51.786;4.662;2023-09-30T09:23:56;18.08;77.76
82788;DHT22;72529;51.786;4.662;2023-09-30T09:26:30;18.14;77.41
82788;DHT22;72529;51.786;4.662;2023-09-30T09:29:02;18.26;77.32
82788;DHT22;72529;51.786;4.662;2023-09-30T09:31:33;18.42;75.72
82788;DHT22;72529;51.786;4.662;2023-09-30T09:34:03;18.29;77.08
82788;DHT22;72529;51.786;4.662;2023-09-30T09:36:40;18.35;77.56
82788;DHT22;72529;51.786;4.662;2023-09-30T09:39:06;18.51;76.40
82788;DHT22;72529;51.786;4.662;2023-09-30T09:41:32;18.63;75.59
82788;DHT22;72529;51.786;4.662;2023-09-30T09:43:59;18.72;75.94
82788;DHT22;72529;51.786;4.662;2023-09-30T09:46:25;18.82;75.80
82788;DHT22;72529;51.786;4.662;2023-09-30T09:48:53;18.95;77.10
82788;DHT22;72529;51.786;4.662;2023-09-30T09:51:20;19.03;73.47
82788;DHT22;72529;51.786;4.662;2023-09-30T09:53:48;19.00;74.26
82788;DHT22;72529;51.786;4.662;2023-09-30T09:56:15;19.08;73.26
82788;DHT22;72529;51.786;4.662;2023-09-30T09:58:42;19.06;73.61
82788;DHT22;72529;51.786;4.662;2023-09-30T10:01:10;19.16;73.98
82788;DHT22;72529;51.786;4.662;2023-09-30T10:03:37;19.30;72.48
82788;DHT22;72529;51.786;4.662;2023-09-30T10:06:04;19.43;72.91
82788;DHT22;72529;51.786;4.662;2023-09-30T10:08:40;19.46;72.28
82788;DHT22;72529;51.786;4.662;2023-09-30T10:11:08;19.57;72.01
82788;DHT22;72529;51.786;4.662;2023-09-30T10:19:15;19.95;70.79
82788;DHT22;72529;51.786;4.662;2023-09-30T10:24:51;19.98;67.74
82788;DHT22;72529;51.786;4.662;2023-09-30T10:37:51;20.47;66.75
82788;DHT22;72529;51.786;4.662;2023-09-30T10:40:27;20.56;66.93
82788;DHT22;72529;51.786;4.662;2023-09-30T10:42:53;20.64;65.91
82788;DHT22;72529;51.786;4.662;2023-09-30T10:50:55;20.93;67.18
82788;DHT22;72529;51.786;4.662;2023-09-30T10:53:22;21.01;64.82
82788;DHT22;72529;51.786;4.662;2023-09-30T10:55:55;21.24;62.49
82788;DHT22;72529;51.786;4.662;2023-09-30T10:58:20;21.26;59.32
82788;DHT22;72529;51.786;4.662;2023-09-30T11:00:53;20.93;60.92
82788;DHT22;72529;51.786;4.662;2023-09-30T11:03:20;20.83;63.71
82788;DHT22;72529;51.786;4.662;2023-09-30T11:05:48;20.74;60.88
82788;DHT22;72529;51.786;4.662;2023-09-30T11:08:16;20.55;63.74
82788;DHT22;72529;51.786;4.662;2023-09-30T11:10:50;20.53;61.36
82788;DHT22;72529;51.786;4.662;2023-09-30T11:13:16;20.63;62.57
82788;DHT22;72529;51.786;4.662;2023-09-30T11:15:43;20.88;62.28
82788;DHT22;72529;51.786;4.662;2023-09-30T11:18:16;21.15;60.84
82788;DHT22;72529;51.786;4.662;2023-09-30T11:20:43;21.18;61.36
82788;DHT22;72529;51.786;4.662;2023-09-30T11:23:10;21.34;60.98
82788;DHT22;72529;51.786;4.662;2023-09-30T11:25:38;21.48;60.48
82788;DHT22;72529;51.786;4.662;2023-09-30T11:28:15;21.26;60.52
82788;DHT22;72529;51.786;4.662;2023-09-30T11:31:00;21.20;61.02
82788;DHT22;72529;51.786;4.662;2023-09-30T11:33:26;21.45;61.26
82788;DHT22;72529;51.786;4.662;2023-09-30T11:36:05;21.37;57.36
82788;DHT22;72529;51.786;4.662;2023-09-30T11:38:34;21.10;58.83
82788;DHT22;72529;51.786;4.662;2023-09-30T11:41:05;21.04;61.83
82788;DHT22;72529;51.786;4.662;2023-09-30T11:43:33;21.10;59.84
82788;DHT22;72529;51.786;4.662;2023-09-30T11:46:12;20.97;58.97
82788;DHT22;72529;51.786;4.662;2023-09-30T11:48:56;20.83;60.94
82788;DHT22;72529;51.786;4.662;2023-09-30T11:51:22;20.80;61.19
82788;DHT22;72529;51.786;4.662;2023-09-30T11:53:52;20.80;61.43
82788;DHT22;72529;51.786;4.662;2023-09-30T11:56:19;20.67;58.51
82788;DHT22;72529;51.786;4.662;2023-09-30T11:58:45;20.52;59.81
82788;DHT22;72529;51.786;4.662;2023-09-30T12:01:11;20.36;59.89
82788;DHT22;72529;51.786;4.662;2023-09-30T12:03:39;20.36;61.95
82788;DHT22;72529;51.786;4.662;2023-09-30T12:06:08;20.57;59.75
82788;DHT22;72529;51.786;4.662;2023-09-30T12:08:39;20.56;60.84
82788;DHT22;72529;51.786;4.662;2023-09-30T12:11:05;20.56;56.58
82788;DHT22;72529;51.786;4.662;2023-09-30T12:13:31;20.40;57.09
82788;DHT22;72529;51.786;4.662;2023-09-30T12:15:56;20.43;58.81
82788;DHT22;72529;51.786;4.662;2023-09-30T12:18:22;20.43;59.52
82788;DHT22;72529;51.786;4.662;2023-09-30T12:20:50;20.55;58.79
82788;DHT22;72529;51.786;4.662;2023-09-30T12:23:19;20.70;58.45
82788;DHT22;72529;51.786;4.662;2023-09-30T12:25:47;21.08;56.88
82788;DHT22;72529;51.786;4.662;2023-09-30T12:28:13;21.39;56.64
82788;DHT22;72529;51.786;4.662;2023-09-30T12:30:43;21.37;58.28
82788;DHT22;72529;51.786;4.662;2023-09-30T12:33:08;21.20;56.25
82788;DHT22;72529;51.786;4.662;2023-09-30T12:35:34;20.76;56.06
82788;DHT22;72529;51.786;4.662;2023-09-30T12:37:59;20.73;58.50
82788;DHT22;72529;51.786;4.662;2023-09-30T12:40:28;20.84;59.00
82788;DHT22;72529;51.786;4.662;2023-09-30T12:42:54;20.81;59.81
82788;DHT22;72529;51.786;4.662;2023-09-30T12:45:20;20.87;61.44
82788;DHT22;72529;51.786;4.662;2023-09-30T12:47:45;21.00;60.81
82788;DHT22;72529;51.786;4.662;2023-09-30T12:50:12;20.94;60.16
82788;DHT22;72529;51.786;4.662;2023-09-30T12:52:38;20.90;60.12
82788;DHT22;72529;51.786;4.662;2023-09-30T12:55:04;20.84;61.35
82788;DHT22;72529;51.786;4.662;2023-09-30T12:57:31;20.77;61.63
82788;DHT22;72529;51.786;4.662;2023-09-30T12:59:57;20.73;60.55
82788;DHT22;72529;51.786;4.662;2023-09-30T13:02:22;20.93;59.74
82788;DHT22;72529;51.786;4.662;2023-09-30T13:04:49;21.15;58.68
82788;DHT22;72529;51.786;4.662;2023-09-30T13:07:14;21.07;57.45
82788;DHT22;72529;51.786;4.662;2023-09-30T13:09:41;21.00;58.39
82788;DHT22;72529;51.786;4.662;2023-09-30T13:12:07;20.96;57.43
82788;DHT22;72529;51.786;4.662;2023-09-30T13:14:36;21.01;58.01
82788;DHT22;72529;51.786;4.662;2023-09-30T13:17:02;21.03;58.04
82788;DHT22;72529;51.786;4.662;2023-09-30T13:19:29;20.86;59.14
82788;DHT22;72529;51.786;4.662;2023-09-30T13:21:54;20.77;59.58
82788;DHT22;72529;51.786;4.662;2023-09-30T13:24:20;20.57;59.77
82788;DHT22;72529;51.786;4.662;2023-09-30T13:26:46;20.62;60.08
82788;DHT22;72529;51.786;4.662;2023-09-30T13:29:12;20.60;60.29
82788;DHT22;72529;51.786;4.662;2023-09-30T13:31:39;20.63;60.33
82788;DHT22;72529;51.786;4.662;2023-09-30T13:34:05;20.53;60.60
82788;DHT22;72529;51.786;4.662;2023-09-30T13:36:31;20.30;62.08
82788;DHT22;72529;51.786;4.662;2023-09-30T13:38:56;20.43;61.40
82788;DHT22;72529;51.786;4.662;2023-09-30T13:41:22;20.60;61.01
82788;DHT22;72529;51.786;4.662;2023-09-30T13:43:47;20.73;61.09
82788;DHT22;72529;51.786;4.662;2023-09-30T13:46:13;20.77;61.62
82788;DHT22;72529;51.786;4.662;2023-09-30T13:48:38;20.86;60.29
82788;DHT22;72529;51.786;4.662;2023-09-30T13:51:10;20.87;59.49
82788;DHT22;72529;51.786;4.662;2023-09-30T13:53:36;20.67;60.03
82788;DHT22;72529;51.786;4.662;2023-09-30T13:56:02;20.64;60.70
82788;DHT22;72529;51.786;4.662;2023-09-30T13:58:31;20.69;60.02
82788;DHT22;72529;51.786;4.662;2023-09-30T14:00:57;20.67;58.27
82788;DHT22;72529;51.786;4.662;2023-09-30T14:03:23;20.66;61.70
82788;DHT22;72529;51.786;4.662;2023-09-30T14:05:51;20.77;60.13
82788;DHT22;72529;51.786;4.662;2023-09-30T14:08:18;20.93;61.00
82788;DHT22;72529;51.786;4.662;2023-09-30T14:10:44;21.06;60.73
82788;DHT22;72529;51.786;4.662;2023-09-30T14:13:10;21.11;60.86
82788;DHT22;72529;51.786;4.662;2023-09-30T14:15:35;21.14;59.34
82788;DHT22;72529;51.786;4.662;2023-09-30T14:18:02;20.86;57.58
82788;DHT22;72529;51.786;4.662;2023-09-30T14:20:27;20.57;60.07
82788;DHT22;72529;51.786;4.662;2023-09-30T14:22:53;20.57;60.77
82788;DHT22;72529;51.786;4.662;2023-09-30T14:25:21;20.56;60.57
82788;DHT22;72529;51.786;4.662;2023-09-30T14:27:47;20.69;59.82
82788;DHT22;72529;51.786;4.662;2023-09-30T14:30:13;20.46;60.85
82788;DHT22;72529;51.786;4.662;2023-09-30T14:32:39;20.42;61.33
82788;DHT22;72529;51.786;4.662;2023-09-30T14:35:06;20.35;62.51
82788;DHT22;72529;51.786;4.662;2023-09-30T14:37:32;20.35;61.16
82788;DHT22;72529;51.786;4.662;2023-09-30T14:39:57;20.40;61.55
82788;DHT22;72529;51.786;4.662;2023-09-30T14:42:23;20.26;61.36
82788;DHT22;72529;51.786;4.662;2023-09-30T14:44:48;20.29;61.17
82788;DHT22;72529;51.786;4.662;2023-09-30T14:47:14;20.37;60.32
82788;DHT22;72529;51.786;4.662;2023-09-30T14:49:40;20.30;60.17
82788;DHT22;72529;51.786;4.662;2023-09-30T14:52:06;20.19;60.84
82788;DHT22;72529;51.786;4.662;2023-09-30T14:54:31;20.09;60.44
82788;DHT22;72529;51.786;4.662;2023-09-30T14:56:57;20.09;61.33
82788;DHT22;72529;51.786;4.662;2023-09-30T14:59:24;19.99;62.59
82788;DHT22;72529;51.786;4.662;2023-09-30T15:01:50;20.06;63.57
82788;DHT22;72529;51.786;4.662;2023-09-30T15:04:17;20.13;62.08
82788;DHT22;72529;51.786;4.662;2023-09-30T15:06:43;20.29;62.11
82788;DHT22;72529;51.786;4.662;2023-09-30T15:09:08;20.11;61.14
82788;DHT22;72529;51.786;4.662;2023-09-30T15:11:37;20.06;62.07
82788;DHT22;72529;51.786;4.662;2023-09-30T15:14:03;20.11;63.34
82788;DHT22;72529;51.786;4.662;2023-09-30T15:16:30;20.09;61.47
82788;DHT22;72529;51.786;4.662;2023-09-30T15:18:57;19.96;61.81
82788;DHT22;72529;51.786;4.662;2023-09-30T15:21:22;19.85;64.17
82788;DHT22;72529;51.786;4.662;2023-09-30T15:23:49;19.85;64.24
82788;DHT22;72529;51.786;4.662;2023-09-30T15:26:15;19.89;61.54
82788;DHT22;72529;51.786;4.662;2023-09-30T15:28:41;19.95;61.81
82788;DHT22;72529;51.786;4.662;2023-09-30T15:31:08;20.02;62.42
82788;DHT22;72529;51.786;4.662;2023-09-30T15:33:33;19.95;61.11
82788;DHT22;72529;51.786;4.662;2023-09-30T15:35:59;19.78;61.43
82788;DHT22;72529;51.786;4.662;2023-09-30T15:38:25;19.67;63.44
82788;DHT22;72529;51.786;4.662;2023-09-30T15:40:55;19.74;64.14
82788;DHT22;72529;51.786;4.662;2023-09-30T15:43:26;19.75;63.49
82788;DHT22;72529;51.786;4.662;2023-09-30T15:45:52;19.81;62.95
82788;DHT22;72529;51.786;4.662;2023-09-30T15:48:19;19.72;62.43
82788;DHT22;72529;51.786;4.662;2023-09-30T15:50:45;19.65;63.73
82788;DHT22;72529;51.786;4.662;2023-09-30T15:53:12;19.58;64.02